Changsha, China
Current Conditions -  °F | °C
As of 8:00 AM on Saturday 25 Oct 2014 (Local Time) from ZGHA Reporting Station
Haze Haze  
Wind Chill: 61°   Ceiling: Unl
Heat Index: 61°   Visibility: 3mi
Dew Point: 55°   Wind: 4mph
Humidity: 82%   Direction: 170°S
Pressure: 30.03"   Gusts: NA
Location:  28.2°N, 112.97°E
Report Text: ZGHA 250000Z 17002MPS 100V210 5000 BR NSC 16/13 Q1017 NOSIG
Loading
Personal Weather Stations






























Interactive Weather Map
Tropical Storm Tracking
New forecast layout! Learn more

10-Day Weather Forecast

Advertisements
Track Severe Weather on mobile